Time,TemperatureF,DewpointF,PressureIn,WindDirection,WindDirectionDegrees,WindSpeedMPH,WindSpeedGustMPH,Humidity,HourlyPrecipIn,Conditions,Clouds,dailyrainin,SoftwareType,DateUTC
2013-06-27 00:04:00,68.9,68.0,29.84,East,88,0.0,1.0,95,0.00,,,0.00,weatherlink.com 1.10,2013-06-27 04:04:00,
2013-06-27 00:19:00,68.9,68.0,29.84,SE,136,0.0,1.0,95,0.00,,,0.00,weatherlink.com 1.10,2013-06-27 04:19:00,
2013-06-27 00:34:00,68.6,67.0,29.84,East,84,2.0,3.0,94,0.00,,,0.00,weatherlink.com 1.10,2013-06-27 04:34:00,
2013-06-27 00:49:00,67.7,66.0,29.83,SSE,153,0.0,2.0,95,0.00,,,0.00,weatherlink.com 1.10,2013-06-27 04:49:00,
2013-06-27 01:04:00,67.4,66.0,29.83,SSE,153,0.0,2.0,95,0.00,,,0.00,weatherlink.com 1.10,2013-06-27 05:04:00,
2013-06-27 01:19:00,67.1,66.0,29.83,SE,144,0.0,1.0,95,0.00,,,0.00,weatherlink.com 1.10,2013-06-27 05:19:00,
2013-06-27 01:34:00,66.8,65.0,29.83,NW,323,0.0,1.0,95,0.00,,,0.00,weatherlink.com 1.10,2013-06-27 05:34:00,
2013-06-27 02:04:00,66.4,65.0,29.83,SSE,163,0.0,1.0,95,0.00,,,0.00,weatherlink.com 1.10,2013-06-27 06:04:00,
2013-06-27 02:19:00,66.3,65.0,29.83,ESE,107,1.0,2.0,96,0.00,,,0.00,weatherlink.com 1.10,2013-06-27 06:19:00,
2013-06-27 02:34:00,66.2,65.0,29.83,ESE,121,0.0,2.0,96,0.00,,,0.00,weatherlink.com 1.10,2013-06-27 06:34:00,
2013-06-27 02:49:00,66.2,65.0,29.82,SE,141,0.0,2.0,96,0.00,,,0.00,weatherlink.com 1.10,2013-06-27 06:49:00,
2013-06-27 03:04:00,66.0,65.0,29.82,SE,136,0.0,2.0,96,0.00,,,0.00,weatherlink.com 1.10,2013-06-27 07:04:00,
2013-06-27 03:19:00,65.8,65.0,29.82,ENE,72,0.0,2.0,96,0.00,,,0.00,weatherlink.com 1.10,2013-06-27 07:19:00,
2013-06-27 03:34:00,65.5,64.0,29.82,East,84,0.0,1.0,96,0.00,,,0.00,weatherlink.com 1.10,2013-06-27 07:34:00,
2013-06-27 03:49:00,65.1,64.0,29.82,NE,37,1.0,2.0,96,0.00,,,0.00,weatherlink.com 1.10,2013-06-27 07:49:00,
2013-06-27 04:04:00,64.6,64.0,29.82,West,262,0.0,2.0,96,0.00,,,0.00,weatherlink.com 1.10,2013-06-27 08:04:00,
2013-06-27 04:19:00,63.7,63.0,29.82,NNW,343,0.0,3.0,96,0.00,,,0.00,weatherlink.com 1.10,2013-06-27 08:19:00,
2013-06-27 04:34:00,63.5,62.0,29.82,ESE,103,0.0,2.0,96,0.00,,,0.00,weatherlink.com 1.10,2013-06-27 08:34:00,
2013-06-27 04:49:00,63.3,62.0,29.81,East,93,0.0,3.0,96,0.00,,,0.00,weatherlink.com 1.10,2013-06-27 08:49:00,
2013-06-27 05:04:00,63.1,62.0,29.81,NNE,13,0.0,4.0,96,0.00,,,0.00,weatherlink.com 1.10,2013-06-27 09:04:00,
2013-06-27 05:19:00,63.0,62.0,29.82,SSE,159,0.0,1.0,96,0.00,,,0.00,weatherlink.com 1.10,2013-06-27 09:19:00,
2013-06-27 05:34:00,62.8,62.0,29.84,SSE,166,0.0,3.0,96,0.00,,,0.00,weatherlink.com 1.10,2013-06-27 09:34:00,
2013-06-27 05:49:00,62.7,62.0,29.85,ESE,119,1.0,3.0,96,0.00,,,0.00,weatherlink.com 1.10,2013-06-27 09:49:00,
2013-06-27 06:04:00,62.6,62.0,29.86,NNE,32,2.0,2.0,96,0.00,,,0.00,weatherlink.com 1.10,2013-06-27 10:04:00,
2013-06-27 06:19:00,62.6,62.0,29.86,East,79,1.0,3.0,96,0.00,,,0.00,weatherlink.com 1.10,2013-06-27 10:19:00,
2013-06-27 06:34:00,62.6,62.0,29.86,SE,134,0.0,3.0,96,0.00,,,0.00,weatherlink.com 1.10,2013-06-27 10:34:00,
2013-06-27 06:49:00,62.6,62.0,29.86,East,96,0.0,2.0,96,0.00,,,0.00,weatherlink.com 1.10,2013-06-27 10:49:00,
2013-06-27 07:04:00,62.9,62.0,29.86,SE,144,0.0,1.0,96,0.00,,,0.00,weatherlink.com 1.10,2013-06-27 11:04:00,
2013-06-27 07:19:00,63.2,62.0,29.86,East,84,0.0,3.0,96,0.00,,,0.00,weatherlink.com 1.10,2013-06-27 11:19:00,
2013-06-27 07:34:00,63.2,62.0,29.86,East,88,1.0,3.0,95,0.00,,,0.00,weatherlink.com 1.10,2013-06-27 11:34:00,
2013-06-27 07:50:00,63.4,62.0,29.86,SE,141,1.0,2.0,95,0.00,,,0.00,weatherlink.com 1.10,2013-06-27 11:50:00,
2013-06-27 08:05:00,63.9,62.0,29.86,ESE,118,0.0,2.0,94,0.00,,,0.00,weatherlink.com 1.10,2013-06-27 12:05:00,
2013-06-27 08:20:00,64.7,63.0,29.86,SSE,155,1.0,2.0,93,0.00,,,0.00,weatherlink.com 1.10,2013-06-27 12:20:00,
2013-06-27 08:35:00,65.8,64.0,29.85,SSE,158,0.0,3.0,92,0.00,,,0.00,weatherlink.com 1.10,2013-06-27 12:35:00,
2013-06-27 08:50:00,66.7,64.0,29.85,NNE,33,2.0,2.0,90,0.00,,,0.00,weatherlink.com 1.10,2013-06-27 12:50:00,
2013-06-27 09:05:00,67.6,64.0,29.85,SE,132,1.0,3.0,88,0.00,,,0.00,weatherlink.com 1.10,2013-06-27 13:05:00,
2013-06-27 09:20:00,68.2,65.0,29.84,East,93,0.0,4.0,88,0.00,,,0.00,weatherlink.com 1.10,2013-06-27 13:20:00,
2013-06-27 09:35:00,68.0,64.0,29.84,SE,140,3.0,4.0,87,0.00,,,0.00,weatherlink.com 1.10,2013-06-27 13:35:00,
2013-06-27 09:50:00,67.8,65.0,29.84,ESE,104,2.0,4.0,89,0.00,,,0.00,weatherlink.com 1.10,2013-06-27 13:50:00,
2013-06-27 10:05:00,68.0,64.0,29.84,South,184,1.0,4.0,88,0.00,,,0.00,weatherlink.com 1.10,2013-06-27 14:05:00,
2013-06-27 10:20:00,68.2,64.0,29.84,SSE,149,2.0,4.0,87,0.00,,,0.00,weatherlink.com 1.10,2013-06-27 14:20:00,
2013-06-27 10:35:00,68.4,64.0,29.83,SSW,200,2.0,2.0,87,0.00,,,0.00,weatherlink.com 1.10,2013-06-27 14:35:00,
2013-06-27 10:50:00,68.2,64.0,29.84,NNE,23,1.0,3.0,87,0.00,,,0.00,weatherlink.com 1.10,2013-06-27 14:50:00,
2013-06-27 11:05:00,68.0,64.0,29.84,SSE,147,0.0,4.0,87,0.00,,,0.00,weatherlink.com 1.10,2013-06-27 15:05:00,
2013-06-27 11:20:00,68.2,65.0,29.84,SE,127,0.0,3.0,88,0.00,,,0.00,weatherlink.com 1.10,2013-06-27 15:20:00,
2013-06-27 11:35:00,69.1,65.0,29.83,South,172,1.0,2.0,86,0.00,,,0.00,weatherlink.com 1.10,2013-06-27 15:35:00,
2013-06-27 11:50:00,69.7,65.0,29.83,NNE,29,0.0,2.0,86,0.00,,,0.00,weatherlink.com 1.10,2013-06-27 15:50:00,
2013-06-27 12:05:00,69.9,65.0,29.83,NNE,16,0.0,3.0,85,0.00,,,0.00,weatherlink.com 1.10,2013-06-27 16:05:00,
2013-06-27 12:20:00,70.9,66.0,29.83,WSW,249,2.0,3.0,84,0.00,,,0.00,weatherlink.com 1.10,2013-06-27 16:20:00,
2013-06-27 12:35:00,71.0,65.0,29.82,NW,323,0.0,4.0,82,0.00,,,0.00,weatherlink.com 1.10,2013-06-27 16:35:00,
2013-06-27 12:50:00,71.2,66.0,29.82,East,85,2.0,4.0,83,0.00,,,0.00,weatherlink.com 1.10,2013-06-27 16:50:00,
2013-06-27 13:05:00,71.8,66.0,29.81,NNE,22,1.0,2.0,82,0.00,,,0.00,weatherlink.com 1.10,2013-06-27 17:05:00,
2013-06-27 13:20:00,73.7,66.0,29.81,ESE,113,1.0,4.0,78,0.00,,,0.00,weatherlink.com 1.10,2013-06-27 17:20:00,
2013-06-27 13:35:00,73.7,66.0,29.81,SSE,161,0.0,5.0,77,0.00,,,0.00,weatherlink.com 1.10,2013-06-27 17:35:00,
2013-06-27 13:50:00,73.3,66.0,29.81,SE,146,0.0,5.0,78,0.00,,,0.00,weatherlink.com 1.10,2013-06-27 17:50:00,
2013-06-27 14:05:00,72.2,66.0,29.81,NE,41,4.0,5.0,81,0.00,,,0.00,weatherlink.com 1.10,2013-06-27 18:05:00,
2013-06-27 14:20:00,71.5,65.0,29.80,SSW,204,1.0,4.0,81,0.00,,,0.00,weatherlink.com 1.10,2013-06-27 18:20:00,
2013-06-27 14:35:00,70.7,65.0,29.80,SSE,149,0.0,4.0,82,0.00,,,0.00,weatherlink.com 1.10,2013-06-27 18:35:00,
2013-06-27 14:50:00,69.2,65.0,29.80,South,188,0.0,4.0,85,0.00,,,0.00,weatherlink.com 1.10,2013-06-27 18:50:00,
2013-06-27 15:05:00,67.6,64.0,29.81,NNE,22,0.0,4.0,88,0.00,,,0.00,weatherlink.com 1.10,2013-06-27 19:05:00,
2013-06-27 15:20:00,67.1,64.0,29.81,SW,214,0.0,4.0,90,0.00,,,0.00,weatherlink.com 1.10,2013-06-27 19:20:00,
2013-06-27 15:35:00,67.7,64.0,29.81,SE,129,0.0,8.0,89,0.00,,,0.00,weatherlink.com 1.10,2013-06-27 19:35:00,
2013-06-27 15:50:00,67.7,65.0,29.80,ESE,121,2.0,5.0,90,0.02,,,0.02,weatherlink.com 1.10,2013-06-27 19:50:00,
2013-06-27 16:05:00,66.7,64.0,29.80,SSE,147,3.0,3.0,91,0.03,,,0.03,weatherlink.com 1.10,2013-06-27 20:05:00,
2013-06-27 16:20:00,66.1,64.0,29.80,SSE,166,1.0,4.0,92,0.03,,,0.03,weatherlink.com 1.10,2013-06-27 20:20:00,
2013-06-27 16:50:00,65.9,64.0,29.79,ENE,58,1.0,4.0,93,0.01,,,0.03,weatherlink.com 1.10,2013-06-27 20:50:00,
2013-06-27 17:05:00,66.0,64.0,29.80,WNW,301,0.0,3.0,93,0.00,,,0.03,weatherlink.com 1.10,2013-06-27 21:05:00,
2013-06-27 17:20:00,65.7,64.0,29.79,NNW,337,0.0,3.0,93,0.00,,,0.03,weatherlink.com 1.10,2013-06-27 21:20:00,
2013-06-27 17:35:00,65.6,64.0,29.79,NNW,340,3.0,3.0,93,0.00,,,0.03,weatherlink.com 1.10,2013-06-27 21:35:00,
2013-06-27 17:50:00,65.5,64.0,29.79,East,84,1.0,4.0,93,0.00,,,0.03,weatherlink.com 1.10,2013-06-27 21:50:00,
2013-06-27 18:06:00,65.4,63.0,29.79,SE,124,1.0,4.0,93,0.00,,,0.03,weatherlink.com 1.10,2013-06-27 22:06:00,
2013-06-27 18:35:00,64.9,63.0,29.79,SE,141,1.0,4.0,94,0.00,,,0.03,weatherlink.com 1.10,2013-06-27 22:35:00,
2013-06-27 18:50:00,64.9,63.0,29.79,ESE,103,0.0,3.0,94,0.00,,,0.03,weatherlink.com 1.10,2013-06-27 22:50:00,
2013-06-27 19:05:00,64.9,64.0,29.79,SE,139,0.0,3.0,95,0.00,,,0.03,weatherlink.com 1.10,2013-06-27 23:05:00,
2013-06-27 19:20:00,64.6,63.0,29.78,SE,136,0.0,4.0,95,0.01,,,0.04,weatherlink.com 1.10,2013-06-27 23:20:00,
2013-06-27 19:35:00,64.6,63.0,29.78,SSE,158,0.0,2.0,95,0.01,,,0.04,weatherlink.com 1.10,2013-06-27 23:35:00,
2013-06-27 19:50:00,64.7,64.0,29.78,SW,221,0.0,3.0,96,0.01,,,0.04,weatherlink.com 1.10,2013-06-27 23:50:00,
2013-06-27 20:35:00,64.4,63.0,29.78,SE,135,2.0,4.0,96,0.00,,,0.04,weatherlink.com 1.10,2013-06-28 00:35:00,
2013-06-27 20:50:00,64.4,63.0,29.78,SSE,160,0.0,2.0,96,0.01,,,0.05,weatherlink.com 1.10,2013-06-28 00:50:00,
2013-06-27 21:05:00,64.4,63.0,29.78,North,4,0.0,2.0,96,0.01,,,0.05,weatherlink.com 1.10,2013-06-28 01:05:00,
2013-06-27 21:20:00,64.4,63.0,29.78,SE,132,1.0,2.0,96,0.01,,,0.05,weatherlink.com 1.10,2013-06-28 01:20:00,
2013-06-27 21:50:00,64.2,63.0,29.79,NNW,344,0.0,2.0,96,0.00,,,0.05,weatherlink.com 1.10,2013-06-28 01:50:00,
2013-06-27 22:05:00,64.2,63.0,29.78,NNE,23,1.0,2.0,96,0.00,,,0.05,weatherlink.com 1.10,2013-06-28 02:05:00,
2013-06-27 22:20:00,64.0,63.0,29.78,NE,35,0.0,2.0,96,0.00,,,0.05,weatherlink.com 1.10,2013-06-28 02:20:00,
2013-06-27 22:35:00,63.9,63.0,29.78,South,186,0.0,2.0,96,0.00,,,0.05,weatherlink.com 1.10,2013-06-28 02:35:00,
2013-06-27 22:51:00,63.9,63.0,29.77,SE,135,1.0,3.0,96,0.00,,,0.05,weatherlink.com 1.10,2013-06-28 02:51:00,
2013-06-27 23:06:00,63.7,63.0,29.76,ESE,121,0.0,3.0,96,0.00,,,0.05,weatherlink.com 1.10,2013-06-28 03:06:00,
2013-06-27 23:21:00,63.8,63.0,29.77,ESE,106,1.0,4.0,96,0.00,,,0.05,weatherlink.com 1.10,2013-06-28 03:21:00,
2013-06-27 23:36:00,63.8,63.0,29.76,SE,143,0.0,2.0,96,0.00,,,0.05,weatherlink.com 1.10,2013-06-28 03:36:00,